Time;durP1;ratioP1;P1;durP2;ratioP2;P2;SDS_P1;SDS_P2;PMS_P1;PMS_P2;Temp;Humidity;BMP_temperature;BMP_pressure;BME280_temperature;BME280_humidity;BME280_pressure;Samples;Min_cycle;Max_cycle;Signal;HPM_P1;HPM_P2
2022/03/23 00:01:53;;;;;;;27.70;18.87;;;;;;;;;;5060753;28;20943;-74
2022/03/23 00:04:20;;;;;;;27.43;18.63;;;;;;;;;;5066545;28;20192;-74
2022/03/23 00:06:46;;;;;;;30.43;19.63;;;;;;;;;;5065241;28;20635;-74
2022/03/23 00:09:14;;;;;;;25.40;18.53;;;;;;;;;;5064947;28;20216;-74
2022/03/23 00:11:41;;;;;;;28.47;20.70;;;;;;;;;;5059705;28;20220;-75
2022/03/23 00:14:07;;;;;;;32.93;21.27;;;;;;;;;;5063159;28;20190;-75
2022/03/23 00:16:39;;;;;;;30.67;21.53;;;;;;;;;;5063531;28;20190;-74
2022/03/23 00:19:07;;;;;;;27.97;20.83;;;;;;;;;;5065434;28;20213;-74
2022/03/23 00:21:33;;;;;;;30.63;20.90;;;;;;;;;;5063046;28;20185;-74
2022/03/23 00:23:59;;;;;;;31.50;21.00;;;;;;;;;;5061128;28;20732;-74
2022/03/23 00:26:26;;;;;;;29.03;19.67;;;;;;;;;;5065355;28;20669;-74
2022/03/23 00:28:52;;;;;;;27.50;19.50;;;;;;;;;;5064240;28;20276;-74
2022/03/23 00:31:20;;;;;;;32.20;19.83;;;;;;;;;;5065370;28;20201;-74
2022/03/23 00:33:47;;;;;;;28.10;18.70;;;;;;;;;;5064109;28;20665;-74
2022/03/23 00:36:13;;;;;;;28.97;18.53;;;;;;;;;;5061928;28;20181;-74
2022/03/23 00:38:40;;;;;;;27.17;19.40;;;;;;;;;;5061053;28;20189;-74
2022/03/23 00:41:06;;;;;;;25.97;18.40;;;;;;;;;;5058872;28;20189;-74
2022/03/23 00:43:33;;;;;;;26.63;18.80;;;;;;;;;;5042651;28;20209;-74
2022/03/23 00:46:00;;;;;;;25.10;18.30;;;;;;;;;;5060412;28;20246;-74
2022/03/23 00:48:26;;;;;;;32.10;20.20;;;;;;;;;;5054226;28;20185;-74
2022/03/23 00:50:55;;;;;;;28.63;19.33;;;;;;;;;;5041915;28;20204;-74
2022/03/23 00:53:21;;;;;;;26.10;19.17;;;;;;;;;;5062751;28;20212;-74
2022/03/23 00:55:48;;;;;;;24.93;18.40;;;;;;;;;;5068559;28;21005;-74
2022/03/23 00:58:14;;;;;;;23.97;17.53;;;;;;;;;;5058173;28;20193;-74
2022/03/23 01:00:41;;;;;;;24.23;18.53;;;;;;;;;;5066620;28;20201;-74
2022/03/23 01:03:09;;;;;;;24.20;17.37;;;;;;;;;;5070997;28;20223;-74
2022/03/23 01:05:36;;;;;;;25.17;17.07;;;;;;;;;;5066062;28;20196;-74
2022/03/23 01:08:03;;;;;;;22.87;17.27;;;;;;;;;;5064198;28;20194;-74
2022/03/23 01:10:29;;;;;;;24.63;17.87;;;;;;;;;;5066921;28;20204;-74
2022/03/23 01:12:56;;;;;;;25.87;18.87;;;;;;;;;;5059776;28;20205;-74
2022/03/23 01:15:22;;;;;;;25.20;18.03;;;;;;;;;;5066712;28;20189;-74
2022/03/23 01:17:49;;;;;;;25.17;17.93;;;;;;;;;;5059773;28;20185;-74
2022/03/23 01:20:16;;;;;;;24.43;17.97;;;;;;;;;;5065975;28;20208;-74
2022/03/23 01:22:44;;;;;;;26.50;18.27;;;;;;;;;;5059354;28;20236;-74
2022/03/23 01:25:13;;;;;;;25.43;18.50;;;;;;;;;;5059696;28;20239;-74
2022/03/23 01:27:40;;;;;;;28.57;19.83;;;;;;;;;;5059331;28;20200;-74
2022/03/23 01:30:11;;;;;;;29.73;18.50;;;;;;;;;;5073211;28;20289;-74
2022/03/23 01:32:38;;;;;;;24.27;18.03;;;;;;;;;;5058457;28;20295;-74
2022/03/23 01:35:05;;;;;;;24.10;17.97;;;;;;;;;;5064037;28;20278;-74
2022/03/23 01:37:32;;;;;;;25.83;17.83;;;;;;;;;;5061718;28;20660;-74
2022/03/23 01:39:59;;;;;;;24.30;18.67;;;;;;;;;;5066459;28;20182;-74
2022/03/23 01:42:27;;;;;;;25.47;17.63;;;;;;;;;;5062895;28;20583;-74
2022/03/23 01:44:54;;;;;;;23.73;17.00;;;;;;;;;;5049616;28;20189;-74
2022/03/23 01:47:23;;;;;;;26.30;18.43;;;;;;;;;;5040642;28;20370;-73
2022/03/23 01:49:52;;;;;;;23.90;17.93;;;;;;;;;;5066421;28;20200;-74
2022/03/23 01:52:20;;;;;;;28.57;18.97;;;;;;;;;;5065333;28;20228;-74
2022/03/23 01:54:46;;;;;;;24.87;18.37;;;;;;;;;;5062692;28;20190;-74
2022/03/23 01:57:15;;;;;;;26.83;17.70;;;;;;;;;;5059573;28;20679;-74
2022/03/23 01:59:42;;;;;;;30.90;18.10;;;;;;;;;;5063128;28;20186;-73
2022/03/23 02:02:08;;;;;;;23.97;17.57;;;;;;;;;;5058421;28;20244;-74
2022/03/23 02:04:43;;;;;;;25.43;18.23;;;;;;;;;;5056467;28;20235;-74
2022/03/23 02:07:10;;;;;;;21.20;16.20;;;;;;;;;;5061172;28;20188;-74
2022/03/23 02:09:39;;;;;;;26.00;17.07;;;;;;;;;;5052154;28;20181;-74
2022/03/23 02:12:11;;;;;;;23.00;17.43;;;;;;;;;;5074917;28;20295;-74
2022/03/23 02:14:38;;;;;;;25.70;17.47;;;;;;;;;;5057927;28;20559;-74
2022/03/23 02:17:05;;;;;;;30.10;18.93;;;;;;;;;;5061676;28;20209;-74
2022/03/23 02:19:32;;;;;;;27.10;18.90;;;;;;;;;;5058931;28;20561;-74
2022/03/23 02:21:59;;;;;;;22.53;16.83;;;;;;;;;;5060262;28;20201;-74
2022/03/23 02:24:27;;;;;;;23.37;17.43;;;;;;;;;;5063207;28;20209;-74
2022/03/23 02:26:54;;;;;;;26.83;17.97;;;;;;;;;;5062957;28;20735;-74
2022/03/23 02:29:21;;;;;;;25.47;16.97;;;;;;;;;;5065365;28;20189;-74
2022/03/23 02:31:47;;;;;;;21.97;17.07;;;;;;;;;;5061127;28;20220;-74
2022/03/23 02:34:13;;;;;;;23.60;17.17;;;;;;;;;;5060069;28;20177;-73
2022/03/23 02:36:39;;;;;;;22.90;16.53;;;;;;;;;;5060166;28;20215;-74
2022/03/23 02:39:05;;;;;;;24.37;17.47;;;;;;;;;;5062940;28;20177;-74
2022/03/23 02:41:32;;;;;;;25.70;18.70;;;;;;;;;;5063593;28;20737;-73
2022/03/23 02:43:59;;;;;;;25.93;18.80;;;;;;;;;;5065189;28;20185;-73
2022/03/23 02:46:28;;;;;;;26.87;18.73;;;;;;;;;;5060965;28;20192;-74
2022/03/23 02:48:55;;;;;;;24.93;18.40;;;;;;;;;;5062705;28;20196;-73
2022/03/23 02:51:21;;;;;;;26.80;17.93;;;;;;;;;;5059769;28;20756;-73
2022/03/23 03:02:19;;;;;;;25.37;17.97;;;;;;;;;;5063605;28;20213;-73
2022/03/23 03:04:45;;;;;;;25.03;17.87;;;;;;;;;;5055887;28;20541;-74
2022/03/23 03:07:11;;;;;;;23.07;17.70;;;;;;;;;;5067935;28;20700;-73
2022/03/23 03:09:37;;;;;;;22.83;17.40;;;;;;;;;;5071084;28;20907;-73
2022/03/23 03:12:04;;;;;;;22.97;17.03;;;;;;;;;;5069165;28;20708;-73
2022/03/23 03:14:31;;;;;;;23.33;16.70;;;;;;;;;;5067248;28;20185;-73
2022/03/23 03:16:57;;;;;;;23.30;17.13;;;;;;;;;;5063727;28;20181;-73
2022/03/23 03:19:24;;;;;;;24.40;16.53;;;;;;;;;;5063136;28;20177;-73
2022/03/23 03:21:50;;;;;;;23.97;16.60;;;;;;;;;;5065334;28;20209;-73
2022/03/23 03:24:16;;;;;;;25.57;17.37;;;;;;;;;;5067592;28;20185;-73
2022/03/23 03:26:43;;;;;;;26.33;17.87;;;;;;;;;;5065143;28;20291;-73
2022/03/23 03:29:09;;;;;;;25.33;17.33;;;;;;;;;;5065422;28;21135;-73
2022/03/23 03:31:36;;;;;;;21.67;16.40;;;;;;;;;;5066341;28;20300;-73
2022/03/23 03:34:02;;;;;;;25.00;17.27;;;;;;;;;;5065563;28;20276;-73
2022/03/23 03:36:28;;;;;;;24.03;17.03;;;;;;;;;;5065142;28;20185;-73
2022/03/23 03:38:55;;;;;;;26.47;16.93;;;;;;;;;;5065179;28;20185;-74
2022/03/23 03:41:21;;;;;;;23.27;16.73;;;;;;;;;;5062917;28;20782;-74
2022/03/23 03:43:48;;;;;;;23.90;17.10;;;;;;;;;;5062547;28;20189;-73
2022/03/23 03:46:14;;;;;;;25.97;17.30;;;;;;;;;;5060519;28;20181;-73
2022/03/23 03:48:41;;;;;;;23.20;16.50;;;;;;;;;;5062998;28;20201;-74
2022/03/23 03:51:08;;;;;;;23.77;16.70;;;;;;;;;;5067433;28;20224;-74
2022/03/23 03:53:35;;;;;;;24.00;17.33;;;;;;;;;;5064946;28;20213;-73
2022/03/23 03:56:01;;;;;;;23.67;16.37;;;;;;;;;;5066999;28;20189;-74
2022/03/23 03:58:28;;;;;;;23.23;17.33;;;;;;;;;;5065233;28;20189;-73
2022/03/23 04:00:54;;;;;;;26.87;18.10;;;;;;;;;;5062881;28;20206;-73
2022/03/23 04:03:20;;;;;;;26.17;17.53;;;;;;;;;;5061818;28;20693;-73
2022/03/23 04:05:46;;;;;;;25.97;18.10;;;;;;;;;;5064683;28;20274;-74
2022/03/23 04:08:13;;;;;;;26.40;18.77;;;;;;;;;;5063455;28;20221;-76
2022/03/23 04:10:39;;;;;;;28.83;20.13;;;;;;;;;;5057062;28;20192;-74
2022/03/23 04:13:07;;;;;;;25.70;18.77;;;;;;;;;;5063660;28;20204;-73
2022/03/23 04:15:34;;;;;;;28.77;18.73;;;;;;;;;;5061235;28;20185;-73
2022/03/23 04:18:00;;;;;;;25.03;18.00;;;;;;;;;;5059255;28;20237;-73
2022/03/23 04:20:28;;;;;;;26.33;19.07;;;;;;;;;;5065035;28;20184;-72
2022/03/23 04:22:54;;;;;;;25.90;18.23;;;;;;;;;;5063018;28;20211;-73
2022/03/23 04:25:20;;;;;;;26.13;18.43;;;;;;;;;;5063878;28;20200;-73
2022/03/23 04:27:47;;;;;;;27.47;18.63;;;;;;;;;;5057904;28;20743;-73
2022/03/23 04:30:14;;;;;;;26.63;18.50;;;;;;;;;;5064156;28;20800;-73
2022/03/23 04:32:41;;;;;;;25.90;19.33;;;;;;;;;;5065886;28;20209;-73
2022/03/23 04:35:07;;;;;;;24.87;19.23;;;;;;;;;;5063975;28;20196;-73
2022/03/23 04:37:34;;;;;;;25.67;18.50;;;;;;;;;;5064460;28;20188;-73
2022/03/23 04:40:00;;;;;;;25.27;18.17;;;;;;;;;;5061842;28;20205;-73
2022/03/23 04:42:27;;;;;;;27.10;18.37;;;;;;;;;;5062180;28;20580;-73
2022/03/23 04:44:53;;;;;;;23.07;17.47;;;;;;;;;;5058190;28;20709;-73
2022/03/23 04:47:19;;;;;;;27.30;17.80;;;;;;;;;;5062109;28;20222;-73
2022/03/23 04:49:45;;;;;;;22.70;17.17;;;;;;;;;;5066813;28;20290;-73
2022/03/23 04:52:13;;;;;;;25.47;16.47;;;;;;;;;;5065508;28;20260;-73
2022/03/23 04:54:39;;;;;;;25.00;17.67;;;;;;;;;;5066118;28;20205;-73
2022/03/23 04:57:05;;;;;;;26.37;18.30;;;;;;;;;;5064273;28;20182;-73
2022/03/23 04:59:32;;;;;;;26.63;18.87;;;;;;;;;;5060821;28;20189;-73
2022/03/23 05:01:58;;;;;;;26.80;20.20;;;;;;;;;;5059462;28;20269;-73
2022/03/23 05:04:24;;;;;;;27.60;19.40;;;;;;;;;;5066220;28;20860;-73
2022/03/23 05:06:50;;;;;;;24.63;18.63;;;;;;;;;;5060648;28;20188;-73
2022/03/23 05:09:16;;;;;;;24.73;18.63;;;;;;;;;;5065618;28;20273;-73
2022/03/23 05:11:43;;;;;;;30.77;19.73;;;;;;;;;;5064828;28;20217;-73
2022/03/23 05:14:09;;;;;;;28.60;17.83;;;;;;;;;;5064761;28;20650;-73
2022/03/23 05:16:35;;;;;;;26.20;17.73;;;;;;;;;;5060756;28;20200;-73
2022/03/23 05:19:01;;;;;;;25.73;18.33;;;;;;;;;;5057080;28;20625;-73
2022/03/23 05:21:27;;;;;;;26.73;18.70;;;;;;;;;;5063546;28;20188;-73
2022/03/23 05:23:53;;;;;;;28.47;18.93;;;;;;;;;;5064529;28;20217;-73
2022/03/23 05:26:19;;;;;;;26.80;17.50;;;;;;;;;;5065573;28;20743;-73
2022/03/23 05:28:45;;;;;;;26.33;18.17;;;;;;;;;;5061869;28;20189;-73
2022/03/23 05:31:11;;;;;;;23.13;17.17;;;;;;;;;;5063959;28;20231;-73
2022/03/23 05:33:38;;;;;;;22.73;16.57;;;;;;;;;;5062354;28;20208;-73
2022/03/23 05:36:05;;;;;;;22.07;16.50;;;;;;;;;;5063263;28;20188;-73
2022/03/23 05:38:31;;;;;;;22.10;16.70;;;;;;;;;;5062414;28;20211;-73
2022/03/23 05:40:57;;;;;;;23.53;17.17;;;;;;;;;;5065334;28;20268;-74
2022/03/23 05:43:23;;;;;;;24.07;17.47;;;;;;;;;;5064491;28;20219;-73
2022/03/23 05:45:49;;;;;;;25.30;19.07;;;;;;;;;;5065259;28;20200;-74
2022/03/23 05:48:16;;;;;;;28.17;19.70;;;;;;;;;;5064202;28;20268;-73
2022/03/23 05:50:42;;;;;;;22.73;17.23;;;;;;;;;;5060615;28;20228;-75
2022/03/23 05:53:08;;;;;;;24.53;17.33;;;;;;;;;;5063561;28;20588;-75
2022/03/23 05:55:35;;;;;;;26.17;18.03;;;;;;;;;;5062585;28;20173;-75
2022/03/23 05:58:03;;;;;;;22.13;16.70;;;;;;;;;;5066591;28;20652;-79
2022/03/23 06:00:30;;;;;;;23.43;16.77;;;;;;;;;;5058549;28;20189;-77
2022/03/23 06:02:56;;;;;;;24.10;17.00;;;;;;;;;;5046470;28;20621;-80
2022/03/23 06:05:22;;;;;;;20.90;15.67;;;;;;;;;;5061520;28;20189;-79
2022/03/23 06:07:49;;;;;;;22.53;15.30;;;;;;;;;;5062736;28;20235;-75
2022/03/23 06:10:15;;;;;;;20.13;15.30;;;;;;;;;;5064605;28;20188;-79
2022/03/23 06:12:46;;;;;;;21.47;17.03;;;;;;;;;;5065816;28;20217;-81
2022/03/23 06:15:12;;;;;;;22.93;17.07;;;;;;;;;;5070304;28;20177;-78
2022/03/23 06:17:39;;;;;;;25.50;17.00;;;;;;;;;;5070940;28;20205;-81
2022/03/23 06:20:06;;;;;;;24.73;18.03;;;;;;;;;;5071167;28;20209;-83
2022/03/23 06:22:32;;;;;;;25.27;18.60;;;;;;;;;;5068396;28;20215;-76
2022/03/23 06:24:58;;;;;;;25.27;18.87;;;;;;;;;;5066354;28;20198;-77
2022/03/23 06:27:25;;;;;;;24.40;18.47;;;;;;;;;;5078633;28;20184;-77
2022/03/23 06:29:51;;;;;;;25.53;18.23;;;;;;;;;;5063030;28;20268;-76
2022/03/23 06:32:17;;;;;;;22.83;17.70;;;;;;;;;;5066106;28;20296;-77
2022/03/23 06:34:44;;;;;;;25.20;18.17;;;;;;;;;;5065482;28;20165;-77
2022/03/23 06:37:10;;;;;;;25.03;16.80;;;;;;;;;;5070415;28;20209;-78
2022/03/23 06:39:36;;;;;;;25.40;17.00;;;;;;;;;;5071775;28;20181;-75
2022/03/23 06:42:02;;;;;;;22.73;16.90;;;;;;;;;;5070900;28;20209;-77
2022/03/23 06:44:29;;;;;;;23.47;17.70;;;;;;;;;;5067385;28;20284;-76
2022/03/23 06:46:55;;;;;;;25.00;17.87;;;;;;;;;;5069500;28;20189;-78
2022/03/23 06:49:21;;;;;;;25.03;18.50;;;;;;;;;;5061442;28;20268;-76
2022/03/23 06:51:47;;;;;;;27.23;17.90;;;;;;;;;;5070490;28;20219;-76
2022/03/23 06:54:13;;;;;;;24.33;17.53;;;;;;;;;;5069047;28;20188;-76
2022/03/23 06:56:39;;;;;;;22.67;17.03;;;;;;;;;;5070896;28;20660;-76
2022/03/23 06:59:06;;;;;;;23.43;16.73;;;;;;;;;;5070577;28;20648;-76
2022/03/23 07:01:32;;;;;;;22.70;16.67;;;;;;;;;;5069437;28;20202;-76
2022/03/23 07:03:58;;;;;;;22.30;17.53;;;;;;;;;;5069547;28;20185;-76
2022/03/23 07:06:24;;;;;;;24.93;16.83;;;;;;;;;;5071267;28;20220;-76
2022/03/23 07:11:35;;;;;;;22.20;16.00;;;;;;;;;;5068952;28;20237;-77
2022/03/23 07:14:02;;;;;;;24.37;16.20;;;;;;;;;;5069688;28;20181;-77
2022/03/23 07:16:28;;;;;;;24.57;15.47;;;;;;;;;;5069666;28;20281;-76
2022/03/23 07:18:54;;;;;;;23.23;15.13;;;;;;;;;;5070783;28;20232;-76
2022/03/23 07:21:20;;;;;;;22.27;16.40;;;;;;;;;;5069512;28;20185;-76
2022/03/23 07:23:46;;;;;;;23.60;15.97;;;;;;;;;;5070096;28;20226;-77
2022/03/23 07:26:16;;;;;;;21.17;15.83;;;;;;;;;;5067777;28;20230;-77
2022/03/23 07:28:44;;;;;;;22.73;16.03;;;;;;;;;;5072125;28;20194;-76
2022/03/23 07:31:12;;;;;;;22.23;15.83;;;;;;;;;;5068928;28;20641;-77
2022/03/23 07:33:38;;;;;;;23.83;16.87;;;;;;;;;;5070044;28;20204;-76
2022/03/23 07:36:05;;;;;;;21.83;16.53;;;;;;;;;;5068660;28;20239;-76
2022/03/23 07:38:31;;;;;;;20.87;15.67;;;;;;;;;;5070274;28;20268;-76
2022/03/23 07:40:57;;;;;;;22.07;15.93;;;;;;;;;;5070451;28;20833;-76
2022/03/23 07:43:24;;;;;;;22.97;16.07;;;;;;;;;;5068392;28;20283;-76
2022/03/23 07:45:50;;;;;;;20.60;14.83;;;;;;;;;;5081352;28;20184;-76
2022/03/23 07:48:16;;;;;;;22.40;16.17;;;;;;;;;;5070227;28;20284;-76
2022/03/23 07:50:43;;;;;;;26.90;18.87;;;;;;;;;;5069690;28;20188;-76
2022/03/23 07:53:09;;;;;;;23.30;17.37;;;;;;;;;;5085907;28;20208;-77
2022/03/23 07:55:35;;;;;;;29.47;17.77;;;;;;;;;;5070486;28;20220;-76
2022/03/23 07:58:01;;;;;;;24.03;18.40;;;;;;;;;;5070112;28;20181;-76
2022/03/23 08:00:28;;;;;;;27.83;18.23;;;;;;;;;;5055654;28;20688;-77
2022/03/23 08:02:54;;;;;;;27.93;18.33;;;;;;;;;;5049225;28;20209;-77
2022/03/23 08:05:20;;;;;;;26.23;18.43;;;;;;;;;;5061303;28;20814;-77
2022/03/23 08:07:46;;;;;;;25.57;18.77;;;;;;;;;;5070028;28;20196;-76
2022/03/23 08:10:13;;;;;;;27.20;19.30;;;;;;;;;;5070206;28;20550;-76
2022/03/23 08:12:39;;;;;;;24.57;18.70;;;;;;;;;;5069175;28;20213;-77
2022/03/23 08:15:06;;;;;;;28.77;19.43;;;;;;;;;;5066314;28;20270;-77
2022/03/23 08:17:32;;;;;;;26.00;18.47;;;;;;;;;;5069197;28;20216;-76
2022/03/23 08:20:42;;;;;;;30.63;21.00;;;;;;;;;;5066634;28;20235;-76
2022/03/23 08:22:47;;;;;;;26.63;19.20;;;;;;;;;;5068447;28;20346;-77
2022/03/23 08:25:14;;;;;;;27.07;18.83;;;;;;;;;;5069730;28;20268;-76
2022/03/23 08:27:40;;;;;;;29.37;19.83;;;;;;;;;;5069819;28;20264;-76
2022/03/23 08:30:07;;;;;;;30.33;20.40;;;;;;;;;;5069853;28;20201;-77
2022/03/23 08:32:33;;;;;;;28.47;19.70;;;;;;;;;;5067526;28;20223;-76
2022/03/23 08:34:59;;;;;;;29.70;21.23;;;;;;;;;;5065935;28;20172;-76
2022/03/23 08:37:26;;;;;;;29.43;21.17;;;;;;;;;;5085000;28;20196;-77
2022/03/23 08:39:53;;;;;;;29.03;20.33;;;;;;;;;;5069824;28;20554;-76
2022/03/23 08:42:19;;;;;;;25.43;20.30;;;;;;;;;;5067701;28;20216;-77
2022/03/23 08:44:45;;;;;;;27.47;20.27;;;;;;;;;;5068381;28;20276;-76
2022/03/23 08:47:12;;;;;;;27.07;19.90;;;;;;;;;;5069459;28;20173;-76
2022/03/23 08:49:38;;;;;;;27.80;20.00;;;;;;;;;;5068777;28;20192;-76
2022/03/23 08:52:05;;;;;;;26.90;19.40;;;;;;;;;;5067966;28;20704;-77
2022/03/23 08:54:31;;;;;;;27.60;20.10;;;;;;;;;;5069689;28;20633;-76
2022/03/23 08:56:58;;;;;;;29.43;19.27;;;;;;;;;;5065385;28;20185;-76
2022/03/23 08:59:24;;;;;;;26.80;20.30;;;;;;;;;;5067129;28;20181;-77
2022/03/23 09:01:50;;;;;;;31.00;20.80;;;;;;;;;;5068669;28;20208;-77
2022/03/23 09:04:17;;;;;;;27.27;20.50;;;;;;;;;;5069083;28;20188;-77
2022/03/23 09:06:43;;;;;;;26.77;20.20;;;;;;;;;;5069142;28;20282;-77
2022/03/23 09:09:09;;;;;;;28.80;21.43;;;;;;;;;;5067927;28;20200;-77
2022/03/23 09:11:35;;;;;;;27.23;20.40;;;;;;;;;;5068660;28;20209;-77
2022/03/23 09:14:02;;;;;;;28.63;20.93;;;;;;;;;;5068645;28;20592;-77
2022/03/23 09:16:28;;;;;;;28.73;21.23;;;;;;;;;;5069025;28;20538;-77
2022/03/23 09:18:55;;;;;;;31.80;20.53;;;;;;;;;;5049644;28;20193;-77
2022/03/23 09:21:21;;;;;;;31.50;21.43;;;;;;;;;;5048778;28;20340;-77
2022/03/23 09:23:48;;;;;;;26.50;19.33;;;;;;;;;;5067693;28;20212;-76
2022/03/23 09:26:14;;;;;;;26.63;20.23;;;;;;;;;;5067633;28;20272;-77
2022/03/23 09:28:40;;;;;;;29.20;20.73;;;;;;;;;;5068218;28;20889;-77
2022/03/23 09:31:06;;;;;;;32.93;19.67;;;;;;;;;;5071155;28;20209;-77
2022/03/23 09:33:33;;;;;;;29.47;20.60;;;;;;;;;;5063673;28;20265;-77
2022/03/23 09:35:59;;;;;;;24.37;19.60;;;;;;;;;;5068435;28;20185;-77
2022/03/23 09:38:26;;;;;;;28.07;19.90;;;;;;;;;;5068661;28;20192;-76
2022/03/23 09:40:53;;;;;;;25.33;18.43;;;;;;;;;;5069239;28;20222;-76
2022/03/23 09:43:23;;;;;;;27.33;18.77;;;;;;;;;;5068141;28;20209;-77
2022/03/23 09:45:50;;;;;;;23.37;18.53;;;;;;;;;;5068621;28;20178;-77
2022/03/23 09:48:26;;;;;;;22.93;17.73;;;;;;;;;;5068260;28;20207;-77
2022/03/23 09:50:53;;;;;;;28.17;19.33;;;;;;;;;;5068646;28;20177;-77
2022/03/23 09:53:21;;;;;;;24.60;18.57;;;;;;;;;;5068360;28;20204;-76
2022/03/23 09:55:52;;;;;;;27.53;19.93;;;;;;;;;;5067431;28;20224;-77
2022/03/23 09:58:18;;;;;;;27.97;19.03;;;;;;;;;;5068456;28;20252;-77
2022/03/23 10:00:45;;;;;;;30.17;19.13;;;;;;;;;;5067732;28;20735;-75
2022/03/23 10:03:15;;;;;;;24.70;18.37;;;;;;;;;;5066459;28;20208;-75
2022/03/23 10:06:00;;;;;;;29.17;20.43;;;;;;;;;;5065093;28;20177;-75
2022/03/23 10:08:45;;;;;;;24.17;19.40;;;;;;;;;;5064405;28;20188;-75
2022/03/23 10:11:30;;;;;;;26.00;18.87;;;;;;;;;;5067023;28;20291;-75
2022/03/23 10:14:15;;;;;;;24.47;18.87;;;;;;;;;;5066310;28;20232;-75
2022/03/23 10:16:51;;;;;;;25.70;20.13;;;;;;;;;;5065643;28;20181;-75
2022/03/23 10:19:18;;;;;;;26.87;19.67;;;;;;;;;;5062886;28;20181;-74
2022/03/23 10:21:45;;;;;;;23.40;19.07;;;;;;;;;;5065908;28;20303;-75
2022/03/23 10:24:11;;;;;;;24.50;19.57;;;;;;;;;;5064582;28;20200;-75
2022/03/23 10:26:38;;;;;;;25.03;20.03;;;;;;;;;;5065649;28;20656;-75
2022/03/23 10:29:11;;;;;;;24.87;18.83;;;;;;;;;;5065640;28;20208;-75
2022/03/23 10:31:37;;;;;;;26.43;20.60;;;;;;;;;;5064821;28;20208;-75
2022/03/23 10:34:07;;;;;;;25.50;20.03;;;;;;;;;;5066420;28;20185;-75
2022/03/23 10:36:43;;;;;;;29.73;20.67;;;;;;;;;;5064492;28;20844;-75
2022/03/23 10:39:11;;;;;;;24.27;19.13;;;;;;;;;;5063155;28;20711;-75
2022/03/23 10:41:38;;;;;;;27.30;20.70;;;;;;;;;;5072698;28;20723;-75
2022/03/23 10:44:04;;;;;;;27.37;21.40;;;;;;;;;;5066343;28;20236;-75
2022/03/23 10:46:30;;;;;;;25.47;19.70;;;;;;;;;;5067189;28;20193;-75
2022/03/23 10:49:03;;;;;;;30.40;20.30;;;;;;;;;;5066704;28;21467;-75
2022/03/23 10:51:30;;;;;;;27.40;19.03;;;;;;;;;;5066950;28;20212;-75
2022/03/23 10:53:56;;;;;;;25.10;18.97;;;;;;;;;;5066060;28;20177;-75
2022/03/23 10:56:30;;;;;;;28.13;20.27;;;;;;;;;;5067758;28;20768;-75
2022/03/23 10:59:15;;;;;;;29.77;21.17;;;;;;;;;;5062992;28;20974;-75
2022/03/23 11:02:00;;;;;;;27.70;21.17;;;;;;;;;;5065436;28;20231;-75
2022/03/23 11:04:29;;;;;;;27.03;20.30;;;;;;;;;;5062918;28;20197;-75
2022/03/23 11:06:58;;;;;;;25.90;20.23;;;;;;;;;;5080113;28;20267;-76
2022/03/23 11:18:05;;;;;;;25.70;19.77;;;;;;;;;;5064727;28;20206;-75
2022/03/23 11:20:43;;;;;;;26.60;19.87;;;;;;;;;;5064725;28;20185;-78
2022/03/23 11:23:17;;;;;;;26.57;20.67;;;;;;;;;;5070261;28;20213;-76
2022/03/23 11:25:43;;;;;;;22.37;19.27;;;;;;;;;;5069391;28;20185;-76
2022/03/23 11:28:11;;;;;;;24.67;19.87;;;;;;;;;;5070731;28;20544;-76
2022/03/23 11:30:37;;;;;;;27.30;21.53;;;;;;;;;;5071183;28;20208;-76
2022/03/23 11:33:07;;;;;;;31.90;21.83;;;;;;;;;;5070041;28;20216;-76
2022/03/23 11:35:34;;;;;;;28.10;22.10;;;;;;;;;;5062697;28;20185;-76
2022/03/23 11:38:05;;;;;;;25.57;20.80;;;;;;;;;;5069063;28;20190;-75
2022/03/23 11:40:31;;;;;;;22.27;18.63;;;;;;;;;;5070606;28;20946;-78
2022/03/23 11:42:58;;;;;;;24.80;20.33;;;;;;;;;;5073422;28;20208;-80
2022/03/23 11:45:26;;;;;;;32.10;23.20;;;;;;;;;;5071743;28;20937;-80
2022/03/23 11:47:58;;;;;;;26.47;20.60;;;;;;;;;;5070262;28;20196;-80
2022/03/23 11:50:33;;;;;;;27.63;22.50;;;;;;;;;;5051670;28;20873;-79
2022/03/23 11:53:02;;;;;;;25.83;20.97;;;;;;;;;;5049029;28;20258;-80
2022/03/23 11:55:37;;;;;;;25.47;20.27;;;;;;;;;;5048433;28;20547;-80
2022/03/23 11:58:04;;;;;;;23.50;20.90;;;;;;;;;;5065924;28;20166;-78
2022/03/23 12:00:38;;;;;;;24.23;21.63;;;;;;;;;;5050638;28;20217;-80
2022/03/23 12:03:04;;;;;;;23.93;19.63;;;;;;;;;;5070168;28;20204;-79
2022/03/23 12:05:32;;;;;;;21.30;18.27;;;;;;;;;;5072110;28;20563;-79
2022/03/23 12:07:58;;;;;;;22.83;17.33;;;;;;;;;;5070462;28;20220;-80
2022/03/23 12:10:32;;;;;;;21.33;17.80;;;;;;;;;;5070551;28;20181;-80
2022/03/23 12:13:12;;;;;;;20.97;17.97;;;;;;;;;;5068383;28;20287;-80
2022/03/23 12:15:54;;;;;;;21.33;17.77;;;;;;;;;;5066045;28;20207;-80
2022/03/23 12:18:38;;;;;;;23.30;17.50;;;;;;;;;;5068642;28;20322;-80
2022/03/23 12:21:05;;;;;;;18.90;16.90;;;;;;;;;;5069311;28;20911;-80
2022/03/23 12:23:55;;;;;;;19.80;17.60;;;;;;;;;;5056257;28;20585;-82
2022/03/23 12:26:21;;;;;;;20.97;17.80;;;;;;;;;;5041862;28;20197;-81
2022/03/23 12:29:09;;;;;;;20.50;17.37;;;;;;;;;;5067943;28;20185;-81
2022/03/23 12:31:37;;;;;;;18.93;16.90;;;;;;;;;;5068070;28;20248;-80
2022/03/23 12:34:09;;;;;;;17.40;15.23;;;;;;;;;;5062303;28;20179;-82
2022/03/23 12:37:01;;;;;;;18.17;15.63;;;;;;;;;;5065273;28;20219;-79
2022/03/23 12:39:31;;;;;;;19.43;15.83;;;;;;;;;;5068927;28;20296;-83
2022/03/23 12:41:59;;;;;;;17.27;15.47;;;;;;;;;;5052104;28;20769;-80
2022/03/23 12:44:30;;;;;;;17.33;15.53;;;;;;;;;;5064542;28;20597;-92
2022/03/23 12:46:57;;;;;;;16.70;14.90;;;;;;;;;;5060403;28;20891;-80
2022/03/23 12:58:11;;;;;;;17.27;15.47;;;;;;;;;;5064424;28;20184;-77
2022/03/23 13:00:40;;;;;;;16.60;14.83;;;;;;;;;;5062946;28;20230;-79
2022/03/23 13:03:06;;;;;;;19.03;14.90;;;;;;;;;;5066558;28;20204;-79
2022/03/23 13:05:37;;;;;;;16.50;14.90;;;;;;;;;;5081813;28;20256;-77
2022/03/23 13:08:23;;;;;;;18.57;15.10;;;;;;;;;;5058390;28;20193;-77
2022/03/23 13:10:59;;;;;;;16.83;14.80;;;;;;;;;;5062962;28;20238;-81
2022/03/23 13:13:26;;;;;;;17.00;15.20;;;;;;;;;;5069391;28;20255;-79
2022/03/23 13:15:52;;;;;;;17.03;15.33;;;;;;;;;;5068575;28;20751;-82
2022/03/23 13:18:25;;;;;;;15.50;14.00;;;;;;;;;;5058103;28;20190;-81
2022/03/23 13:20:52;;;;;;;16.73;14.67;;;;;;;;;;5067272;28;20643;-78
2022/03/23 13:23:22;;;;;;;18.53;14.10;;;;;;;;;;5067966;28;20688;-79
2022/03/23 13:26:04;;;;;;;15.27;13.73;;;;;;;;;;5068924;28;20282;-78
2022/03/23 13:28:34;;;;;;;15.07;13.67;;;;;;;;;;5071539;28;20186;-79
2022/03/23 13:31:01;;;;;;;14.90;13.50;;;;;;;;;;5068008;28;20219;-81
2022/03/23 13:33:35;;;;;;;14.57;13.17;;;;;;;;;;5069119;28;20292;-81
2022/03/23 13:36:02;;;;;;;16.60;14.90;;;;;;;;;;5069582;28;20247;-78
2022/03/23 13:38:42;;;;;;;19.17;14.80;;;;;;;;;;5065857;28;20181;-78
2022/03/23 13:43:54;;;;;;;15.47;14.00;;;;;;;;;;5067190;28;20218;-78
2022/03/23 13:46:24;;;;;;;16.90;15.13;;;;;;;;;;5066050;28;20668;-78
2022/03/23 13:49:04;;;;;;;17.87;15.50;;;;;;;;;;5075682;28;20191;-81
2022/03/23 13:51:34;;;;;;;16.03;14.47;;;;;;;;;;5066672;28;20213;-81
2022/03/23 13:54:01;;;;;;;16.63;14.93;;;;;;;;;;5071783;28;20265;-81
2022/03/23 13:56:35;;;;;;;17.33;15.63;;;;;;;;;;5067157;28;20436;-80
2022/03/23 13:59:02;;;;;;;16.87;15.17;;;;;;;;;;5067808;28;20183;-80
2022/03/23 14:01:29;;;;;;;22.53;15.50;;;;;;;;;;5073822;28;20197;-80
2022/03/23 14:03:57;;;;;;;16.93;15.23;;;;;;;;;;5067140;28;20182;-80
2022/03/23 14:06:24;;;;;;;18.20;16.30;;;;;;;;;;5066408;28;20186;-80
2022/03/23 14:08:53;;;;;;;17.23;15.53;;;;;;;;;;5060622;28;20182;-81
2022/03/23 14:11:20;;;;;;;16.93;15.17;;;;;;;;;;5067707;28;20211;-81
2022/03/23 14:13:52;;;;;;;16.60;15.03;;;;;;;;;;5057785;28;20215;-82
2022/03/23 14:16:20;;;;;;;16.47;14.80;;;;;;;;;;5056178;28;20177;-81
2022/03/23 14:18:48;;;;;;;16.73;14.50;;;;;;;;;;5067188;28;20662;-81
2022/03/23 14:21:21;;;;;;;16.67;13.43;;;;;;;;;;5068158;28;20207;-81
2022/03/23 14:23:48;;;;;;;15.27;13.80;;;;;;;;;;5064518;28;20234;-83
2022/03/23 14:26:25;;;;;;;16.47;14.87;;;;;;;;;;5035383;28;20189;-84
2022/03/23 14:28:51;;;;;;;14.90;13.40;;;;;;;;;;5068345;28;20325;-84
2022/03/23 14:31:22;;;;;;;15.03;13.57;;;;;;;;;;5067916;28;20299;-79
2022/03/23 14:33:52;;;;;;;16.23;14.63;;;;;;;;;;5050789;28;20354;-79
2022/03/23 14:36:28;;;;;;;16.17;14.67;;;;;;;;;;5066401;28;20191;-79
2022/03/23 14:38:56;;;;;;;15.83;14.37;;;;;;;;;;5062720;28;20187;-79
2022/03/23 14:41:22;;;;;;;16.30;14.47;;;;;;;;;;5064886;28;20687;-78
2022/03/23 14:43:49;;;;;;;16.00;14.40;;;;;;;;;;5068072;28;20657;-78
2022/03/23 14:46:21;;;;;;;16.17;14.57;;;;;;;;;;5067475;28;20178;-79
2022/03/23 14:49:26;;;;;;;18.87;15.40;;;;;;;;;;5066856;28;20597;-78
2022/03/23 14:51:53;;;;;;;15.80;14.30;;;;;;;;;;5036371;28;20233;-78
2022/03/23 14:54:20;;;;;;;17.07;15.33;;;;;;;;;;5054174;28;20210;-79